sensor_id;sensor_type;location;lat;lon;timestamp;pressure;altitude;pressure_sealevel;temperature;humidity
14343;BME280;7255;53.596;9.960;2023-03-15T00:00:39;100254.72;;;1.65;nan
14343;BME280;7255;53.596;9.960;2023-03-15T00:03:08;100257.13;;;1.60;nan
14343;BME280;7255;53.596;9.960;2023-03-15T00:05:34;100262.75;;;1.57;nan
14343;BME280;7255;53.596;9.960;2023-03-15T00:08:01;100286.50;;;1.65;nan
14343;BME280;7255;53.596;9.960;2023-03-15T00:10:28;100276.03;;;1.71;nan
14343;BME280;7255;53.596;9.960;2023-03-15T00:12:54;100265.69;;;1.62;nan
14343;BME280;7255;53.596;9.960;2023-03-15T00:15:21;100274.06;;;1.50;nan
14343;BME280;7255;53.596;9.960;2023-03-15T00:17:47;100364.28;;;1.41;nan
14343;BME280;7255;53.596;9.960;2023-03-15T00:20:15;100286.06;;;1.38;nan
14343;BME280;7255;53.596;9.960;2023-03-15T00:22:43;100310.88;;;1.37;nan
14343;BME280;7255;53.596;9.960;2023-03-15T00:25:09;100286.97;;;1.22;nan
14343;BME280;7255;53.596;9.960;2023-03-15T00:27:35;100359.56;;;1.28;nan
14343;BME280;7255;53.596;9.960;2023-03-15T00:30:02;100296.88;;;1.28;nan
14343;BME280;7255;53.596;9.960;2023-03-15T00:32:28;100289.91;;;1.27;nan
14343;BME280;7255;53.596;9.960;2023-03-15T00:34:55;100284.97;;;1.24;nan
14343;BME280;7255;53.596;9.960;2023-03-15T00:37:23;100288.16;;;1.20;nan
14343;BME280;7255;53.596;9.960;2023-03-15T00:39:50;100339.31;;;1.12;nan
14343;BME280;7255;53.596;9.960;2023-03-15T00:42:19;100282.22;;;1.09;nan
14343;BME280;7255;53.596;9.960;2023-03-15T00:44:46;100294.81;;;1.07;nan
14343;BME280;7255;53.596;9.960;2023-03-15T00:47:13;100301.78;;;1.08;nan
14343;BME280;7255;53.596;9.960;2023-03-15T00:49:40;100311.66;;;1.14;nan
14343;BME280;7255;53.596;9.960;2023-03-15T00:52:06;100296.97;;;1.12;nan
14343;BME280;7255;53.596;9.960;2023-03-15T00:54:34;100311.66;;;1.14;nan
14343;BME280;7255;53.596;9.960;2023-03-15T00:57:01;100310.00;;;1.13;nan
14343;BME280;7255;53.596;9.960;2023-03-15T00:59:29;100305.25;;;1.01;nan
14343;BME280;7255;53.596;9.960;2023-03-15T01:01:58;100314.34;;;1.06;nan
14343;BME280;7255;53.596;9.960;2023-03-15T01:04:25;100322.56;;;1.11;nan
14343;BME280;7255;53.596;9.960;2023-03-15T01:06:51;100315.50;;;1.04;nan
14343;BME280;7255;53.596;9.960;2023-03-15T01:09:17;100317.50;;;1.02;nan
14343;BME280;7255;53.596;9.960;2023-03-15T01:11:45;100309.72;;;1.00;nan
14343;BME280;7255;53.596;9.960;2023-03-15T01:14:11;100320.78;;;1.04;nan
14343;BME280;7255;53.596;9.960;2023-03-15T01:16:38;100309.41;;;1.03;nan
14343;BME280;7255;53.596;9.960;2023-03-15T01:19:04;100334.00;;;1.12;nan
14343;BME280;7255;53.596;9.960;2023-03-15T01:21:30;100335.63;;;1.13;nan
14343;BME280;7255;53.596;9.960;2023-03-15T01:23:57;100335.78;;;1.20;nan
14343;BME280;7255;53.596;9.960;2023-03-15T01:26:23;100339.06;;;1.22;nan
14343;BME280;7255;53.596;9.960;2023-03-15T01:28:51;100343.19;;;1.24;nan
14343;BME280;7255;53.596;9.960;2023-03-15T01:31:19;100335.41;;;1.23;nan
14343;BME280;7255;53.596;9.960;2023-03-15T01:33:46;100346.84;;;1.23;nan
14343;BME280;7255;53.596;9.960;2023-03-15T01:36:13;100398.53;;;1.42;nan
14343;BME280;7255;53.596;9.960;2023-03-15T01:38:39;100371.84;;;1.52;nan
14343;BME280;7255;53.596;9.960;2023-03-15T01:41:06;100356.09;;;1.59;nan
14343;BME280;7255;53.596;9.960;2023-03-15T01:43:33;100362.09;;;1.52;nan
14343;BME280;7255;53.596;9.960;2023-03-15T01:46:23;100328.41;;;1.38;nan
14343;BME280;7255;53.596;9.960;2023-03-15T01:48:54;100361.31;;;1.35;nan
14343;BME280;7255;53.596;9.960;2023-03-15T01:51:23;100364.28;;;1.41;nan
14343;BME280;7255;53.596;9.960;2023-03-15T01:53:55;100371.25;;;1.42;nan
14343;BME280;7255;53.596;9.960;2023-03-15T01:56:23;100366.03;;;1.25;nan
14343;BME280;7255;53.596;9.960;2023-03-15T01:58:50;100368.03;;;1.23;nan
14343;BME280;7255;53.596;9.960;2023-03-15T02:01:18;100378.41;;;1.33;nan
14343;BME280;7255;53.596;9.960;2023-03-15T02:03:49;100389.94;;;1.40;nan
14343;BME280;7255;53.596;9.960;2023-03-15T02:06:18;100373.81;;;1.27;nan
14343;BME280;7255;53.596;9.960;2023-03-15T02:08:49;100379.56;;;1.30;nan
14343;BME280;7255;53.596;9.960;2023-03-15T02:11:18;100381.09;;;1.25;nan
14343;BME280;7255;53.596;9.960;2023-03-15T02:13:47;100371.00;;;1.28;nan
14343;BME280;7255;53.596;9.960;2023-03-15T02:16:14;100388.16;;;1.32;nan
14343;BME280;7255;53.596;9.960;2023-03-15T02:18:40;100385.34;;;1.34;nan
14343;BME280;7255;53.596;9.960;2023-03-15T02:21:14;100365.87;;;1.19;nan
14343;BME280;7255;53.596;9.960;2023-03-15T02:23:51;100378.78;;;1.13;nan
14343;BME280;7255;53.596;9.960;2023-03-15T02:26:23;100375.16;;;1.14;nan
14343;BME280;7255;53.596;9.960;2023-03-15T02:28:52;100362.44;;;1.10;nan
14343;BME280;7255;53.596;9.960;2023-03-15T02:31:20;100387.41;;;1.15;nan
14343;BME280;7255;53.596;9.960;2023-03-15T02:33:49;100399.91;;;1.30;nan
14343;BME280;7255;53.596;9.960;2023-03-15T02:36:17;100405.00;;;1.40;nan
14343;BME280;7255;53.596;9.960;2023-03-15T02:38:44;100412.31;;;1.38;nan
14343;BME280;7255;53.596;9.960;2023-03-15T02:41:11;100402.53;;;1.38;nan
14343;BME280;7255;53.596;9.960;2023-03-15T02:43:38;100409.34;;;1.32;nan
14343;BME280;7255;53.596;9.960;2023-03-15T02:46:08;100410.37;;;1.23;nan
14343;BME280;7255;53.596;9.960;2023-03-15T02:48:35;100398.00;;;1.15;nan
14343;BME280;7255;53.596;9.960;2023-03-15T02:51:03;100407.75;;;1.15;nan
14343;BME280;7255;53.596;9.960;2023-03-15T02:53:29;100426.25;;;1.23;nan
14343;BME280;7255;53.596;9.960;2023-03-15T02:55:56;100423.44;;;1.25;nan
14343;BME280;7255;53.596;9.960;2023-03-15T02:58:23;100421.97;;;1.14;nan
14343;BME280;7255;53.596;9.960;2023-03-15T03:00:51;100444.63;;;1.25;nan
14343;BME280;7255;53.596;9.960;2023-03-15T03:03:19;100454.19;;;1.34;nan
14343;BME280;7255;53.596;9.960;2023-03-15T03:05:45;100454.78;;;1.44;nan
14343;BME280;7255;53.596;9.960;2023-03-15T03:08:11;100455.16;;;1.41;nan
14343;BME280;7255;53.596;9.960;2023-03-15T03:10:40;100463.03;;;1.49;nan
14343;BME280;7255;53.596;9.960;2023-03-15T03:13:06;100457.41;;;1.52;nan
14343;BME280;7255;53.596;9.960;2023-03-15T03:15:33;100477.75;;;1.52;nan
14343;BME280;7255;53.596;9.960;2023-03-15T03:17:59;100465.88;;;1.48;nan
14343;BME280;7255;53.596;9.960;2023-03-15T03:20:27;100473.31;;;1.52;nan
14343;BME280;7255;53.596;9.960;2023-03-15T03:22:53;100473.16;;;1.46;nan
14343;BME280;7255;53.596;9.960;2023-03-15T03:25:20;100485.91;;;1.50;nan
14343;BME280;7255;53.596;9.960;2023-03-15T03:27:51;100508.88;;;1.58;nan
14343;BME280;7255;53.596;9.960;2023-03-15T03:30:21;100518.66;;;1.58;nan
14343;BME280;7255;53.596;9.960;2023-03-15T03:32:48;100511.41;;;1.43;nan
14343;BME280;7255;53.596;9.960;2023-03-15T03:35:15;100514.41;;;1.32;nan
14343;BME280;7255;53.596;9.960;2023-03-15T03:37:42;100509.97;;;1.16;nan
14343;BME280;7255;53.596;9.960;2023-03-15T03:40:10;100527.50;;;1.17;nan
14343;BME280;7255;53.596;9.960;2023-03-15T03:42:37;100532.16;;;1.07;nan
14343;BME280;7255;53.596;9.960;2023-03-15T03:45:04;100529.00;;;0.95;nan
14343;BME280;7255;53.596;9.960;2023-03-15T03:47:30;100539.25;;;0.82;nan
14343;BME280;7255;53.596;9.960;2023-03-15T03:49:58;100534.66;;;0.75;nan
14343;BME280;7255;53.596;9.960;2023-03-15T03:52:24;100533.66;;;0.68;nan
14343;BME280;7255;53.596;9.960;2023-03-15T03:54:52;100536.13;;;0.70;nan
14343;BME280;7255;53.596;9.960;2023-03-15T03:57:18;100535.28;;;0.69;nan
14343;BME280;7255;53.596;9.960;2023-03-15T03:59:44;100542.75;;;0.74;nan
14343;BME280;7255;53.596;9.960;2023-03-15T04:02:10;100546.88;;;0.76;nan
14343;BME280;7255;53.596;9.960;2023-03-15T04:04:37;100531.84;;;0.77;nan
14343;BME280;7255;53.596;9.960;2023-03-15T04:07:05;100550.84;;;0.89;nan
14343;BME280;7255;53.596;9.960;2023-03-15T04:09:31;100541.94;;;0.90;nan
14343;BME280;7255;53.596;9.960;2023-03-15T04:12:03;100535.97;;;0.96;nan
14343;BME280;7255;53.596;9.960;2023-03-15T04:14:30;100547.84;;;1.00;nan
14343;BME280;7255;53.596;9.960;2023-03-15T04:16:56;100537.44;;;0.90;nan
14343;BME280;7255;53.596;9.960;2023-03-15T04:19:22;100551.00;;;0.95;nan
14343;BME280;7255;53.596;9.960;2023-03-15T04:21:49;100554.47;;;0.88;nan
14343;BME280;7255;53.596;9.960;2023-03-15T04:24:16;100560.44;;;0.98;nan
14343;BME280;7255;53.596;9.960;2023-03-15T04:26:42;100568.53;;;0.96;nan
14343;BME280;7255;53.596;9.960;2023-03-15T04:29:10;100647.09;;;0.96;nan
14343;BME280;7255;53.596;9.960;2023-03-15T04:31:38;100585.56;;;0.94;nan
14343;BME280;7255;53.596;9.960;2023-03-15T04:34:07;100592.50;;;0.95;nan
14343;BME280;7255;53.596;9.960;2023-03-15T04:36:34;100593.84;;;0.99;nan
14343;BME280;7255;53.596;9.960;2023-03-15T04:39:00;100606.87;;;1.01;nan
14343;BME280;7255;53.596;9.960;2023-03-15T04:41:32;100663.63;;;1.06;nan
14343;BME280;7255;53.596;9.960;2023-03-15T04:43:59;100612.69;;;1.04;nan
14343;BME280;7255;53.596;9.960;2023-03-15T04:46:27;100620.81;;;1.03;nan
14343;BME280;7255;53.596;9.960;2023-03-15T04:48:53;100662.62;;;0.99;nan
14343;BME280;7255;53.596;9.960;2023-03-15T04:51:19;100612.66;;;0.88;nan
14343;BME280;7255;53.596;9.960;2023-03-15T04:53:46;100597.78;;;0.95;nan
14343;BME280;7255;53.596;9.960;2023-03-15T04:56:12;100594.47;;;0.93;nan
14343;BME280;7255;53.596;9.960;2023-03-15T04:58:38;100601.09;;;0.97;nan
14343;BME280;7255;53.596;9.960;2023-03-15T05:01:05;100599.13;;;0.99;nan
14343;BME280;7255;53.596;9.960;2023-03-15T05:03:32;100614.16;;;0.99;nan
14343;BME280;7255;53.596;9.960;2023-03-15T05:06:00;100615.66;;;0.93;nan
14343;BME280;7255;53.596;9.960;2023-03-15T05:08:32;100624.59;;;0.92;nan
14343;BME280;7255;53.596;9.960;2023-03-15T05:10:58;100631.19;;;0.96;nan
14343;BME280;7255;53.596;9.960;2023-03-15T05:13:24;100625.91;;;0.96;nan
14343;BME280;7255;53.596;9.960;2023-03-15T05:15:51;100634.00;;;0.94;nan
14343;BME280;7255;53.596;9.960;2023-03-15T05:18:17;100632.38;;;0.93;nan
14343;BME280;7255;53.596;9.960;2023-03-15T05:20:45;100633.50;;;0.91;nan
14343;BME280;7255;53.596;9.960;2023-03-15T05:23:11;100644.09;;;0.91;nan
14343;BME280;7255;53.596;9.960;2023-03-15T05:25:38;100642.47;;;0.90;nan
14343;BME280;7255;53.596;9.960;2023-03-15T05:28:04;100643.09;;;0.84;nan
14343;BME280;7255;53.596;9.960;2023-03-15T05:30:31;100639.28;;;0.78;nan
14343;BME280;7255;53.596;9.960;2023-03-15T05:32:57;100656.63;;;0.72;nan
14343;BME280;7255;53.596;9.960;2023-03-15T05:35:23;100667.72;;;0.76;nan
14343;BME280;7255;53.596;9.960;2023-03-15T05:37:53;100666.53;;;0.79;nan
14343;BME280;7255;53.596;9.960;2023-03-15T05:40:20;100666.88;;;0.75;nan
14343;BME280;7255;53.596;9.960;2023-03-15T05:42:46;100677.97;;;0.79;nan
14343;BME280;7255;53.596;9.960;2023-03-15T05:45:13;100678.59;;;0.73;nan
14343;BME280;7255;53.596;9.960;2023-03-15T05:47:39;100684.41;;;0.76;nan
14343;BME280;7255;53.596;9.960;2023-03-15T05:50:06;100695.31;;;0.73;nan
14343;BME280;7255;53.596;9.960;2023-03-15T05:52:32;100692.19;;;0.78;nan
14343;BME280;7255;53.596;9.960;2023-03-15T05:55:00;100694.34;;;0.83;nan
14343;BME280;7255;53.596;9.960;2023-03-15T05:57:26;100702.94;;;0.85;nan
14343;BME280;7255;53.596;9.960;2023-03-15T05:59:53;100694.97;;;0.76;nan
14343;BME280;7255;53.596;9.960;2023-03-15T06:02:19;100710.72;;;0.86;nan
14343;BME280;7255;53.596;9.960;2023-03-15T06:04:45;100704.59;;;0.86;nan
14343;BME280;7255;53.596;9.960;2023-03-15T06:07:12;100713.34;;;0.78;nan
14343;BME280;7255;53.596;9.960;2023-03-15T06:09:38;100717.50;;;0.81;nan
14343;BME280;7255;53.596;9.960;2023-03-15T06:12:06;100728.91;;;0.81;nan
14343;BME280;7255;53.596;9.960;2023-03-15T06:14:32;100735.72;;;0.92;nan
14343;BME280;7255;53.596;9.960;2023-03-15T06:16:58;100745.63;;;0.98;nan
14343;BME280;7255;53.596;9.960;2023-03-15T06:19:25;100744.31;;;0.94;nan
14343;BME280;7255;53.596;9.960;2023-03-15T06:21:51;100743.16;;;0.96;nan
14343;BME280;7255;53.596;9.960;2023-03-15T06:24:17;100740.16;;;0.91;nan
14343;BME280;7255;53.596;9.960;2023-03-15T06:26:43;100756.53;;;0.95;nan
14343;BME280;7255;53.596;9.960;2023-03-15T06:29:11;100766.50;;;1.01;nan
14343;BME280;7255;53.596;9.960;2023-03-15T06:31:37;100756.94;;;1.08;nan
14343;BME280;7255;53.596;9.960;2023-03-15T06:34:04;100754.59;;;1.13;nan
14343;BME280;7255;53.596;9.960;2023-03-15T06:36:30;100761.38;;;1.08;nan
14343;BME280;7255;53.596;9.960;2023-03-15T06:38:56;100770.16;;;1.17;nan
14343;BME280;7255;53.596;9.960;2023-03-15T06:41:23;100792.19;;;1.33;nan
14343;BME280;7255;53.596;9.960;2023-03-15T06:43:49;100789.25;;;1.45;nan
14343;BME280;7255;53.596;9.960;2023-03-15T06:46:17;100804.16;;;1.54;nan
14343;BME280;7255;53.596;9.960;2023-03-15T06:48:43;100795.06;;;1.65;nan
14343;BME280;7255;53.596;9.960;2023-03-15T06:51:09;100797.72;;;1.73;nan
14343;BME280;7255;53.596;9.960;2023-03-15T06:53:36;100802.34;;;1.79;nan
14343;BME280;7255;53.596;9.960;2023-03-15T06:56:02;100825.53;;;1.77;nan
14343;BME280;7255;53.596;9.960;2023-03-15T06:58:29;100810.63;;;1.84;nan
14343;BME280;7255;53.596;9.960;2023-03-15T07:00:55;100809.31;;;1.80;nan
14343;BME280;7255;53.596;9.960;2023-03-15T07:03:23;100811.94;;;1.88;nan
14343;BME280;7255;53.596;9.960;2023-03-15T07:05:49;100826.03;;;1.97;nan
14343;BME280;7255;53.596;9.960;2023-03-15T07:08:18;100834.16;;;1.96;nan
14343;BME280;7255;53.596;9.960;2023-03-15T07:10:44;100843.25;;;1.85;nan
14343;BME280;7255;53.596;9.960;2023-03-15T07:13:12;100844.09;;;1.85;nan
14343;BME280;7255;53.596;9.960;2023-03-15T07:15:38;100852.34;;;1.90;nan
14343;BME280;7255;53.596;9.960;2023-03-15T07:18:05;100847.41;;;1.71;nan
14343;BME280;7255;53.596;9.960;2023-03-15T07:20:33;100857.97;;;1.54;nan
14343;BME280;7255;53.596;9.960;2023-03-15T07:23:00;100875.13;;;1.42;nan
14343;BME280;7255;53.596;9.960;2023-03-15T07:25:27;100871.44;;;1.27;nan
14343;BME280;7255;53.596;9.960;2023-03-15T07:27:53;100873.03;;;1.11;nan
14343;BME280;7255;53.596;9.960;2023-03-15T07:30:20;100800.41;;;1.06;nan
14343;BME280;7255;53.596;9.960;2023-03-15T07:32:46;100825.66;;;0.92;nan
14343;BME280;7255;53.596;9.960;2023-03-15T07:35:13;100863.75;;;0.99;nan
14343;BME280;7255;53.596;9.960;2023-03-15T07:37:42;100863.09;;;1.05;nan
14343;BME280;7255;53.596;9.960;2023-03-15T07:40:10;100839.94;;;1.07;nan
14343;BME280;7255;53.596;9.960;2023-03-15T07:42:38;100801.91;;;1.17;nan
14343;BME280;7255;53.596;9.960;2023-03-15T07:45:05;100866.47;;;1.24;nan
14343;BME280;7255;53.596;9.960;2023-03-15T07:47:32;100857.87;;;1.22;nan
14343;BME280;7255;53.596;9.960;2023-03-15T07:49:58;100872.28;;;1.27;nan
14343;BME280;7255;53.596;9.960;2023-03-15T07:52:25;100827.78;;;1.39;nan
14343;BME280;7255;53.596;9.960;2023-03-15T07:54:53;100899.13;;;1.41;nan
14343;BME280;7255;53.596;9.960;2023-03-15T07:57:19;100900.12;;;1.48;nan
14343;BME280;7255;53.596;9.960;2023-03-15T07:59:46;100898.66;;;1.53;nan
14343;BME280;7255;53.596;9.960;2023-03-15T08:02:13;100906.66;;;1.62;nan
14343;BME280;7255;53.596;9.960;2023-03-15T08:04:40;100907.97;;;1.66;nan
14343;BME280;7255;53.596;9.960;2023-03-15T08:07:07;100914.59;;;1.70;nan
14343;BME280;7255;53.596;9.960;2023-03-15T08:09:33;100915.09;;;1.73;nan
14343;BME280;7255;53.596;9.960;2023-03-15T08:12:01;100914.28;;;1.73;nan
14343;BME280;7255;53.596;9.960;2023-03-15T08:14:27;100922.59;;;1.78;nan
14343;BME280;7255;53.596;9.960;2023-03-15T08:16:55;100913.00;;;1.85;nan
14343;BME280;7255;53.596;9.960;2023-03-15T08:19:22;100928.22;;;1.91;nan
14343;BME280;7255;53.596;9.960;2023-03-15T08:21:48;100923.25;;;1.88;nan
14343;BME280;7255;53.596;9.960;2023-03-15T08:24:18;100939.16;;;1.88;nan
14343;BME280;7255;53.596;9.960;2023-03-15T08:26:44;100945.47;;;1.96;nan
14343;BME280;7255;53.596;9.960;2023-03-15T08:29:12;100948.47;;;2.01;nan
14343;BME280;7255;53.596;9.960;2023-03-15T08:31:39;100958.75;;;2.04;nan
14343;BME280;7255;53.596;9.960;2023-03-15T08:34:06;100955.59;;;2.08;nan
14343;BME280;7255;53.596;9.960;2023-03-15T08:36:32;100951.28;;;2.16;nan
14343;BME280;7255;53.596;9.960;2023-03-15T08:38:58;100960.75;;;2.18;nan
14343;BME280;7255;53.596;9.960;2023-03-15T08:41:25;100976.66;;;2.18;nan
14343;BME280;7255;53.596;9.960;2023-03-15T08:43:51;100982.47;;;2.22;nan
14343;BME280;7255;53.596;9.960;2023-03-15T08:46:19;100974.50;;;2.30;nan
14343;BME280;7255;53.596;9.960;2023-03-15T08:48:46;100991.75;;;2.34;nan
14343;BME280;7255;53.596;9.960;2023-03-15T08:51:12;100986.13;;;2.37;nan
14343;BME280;7255;53.596;9.960;2023-03-15T08:53:38;100993.75;;;2.48;nan
14343;BME280;7255;53.596;9.960;2023-03-15T08:56:05;101000.25;;;2.62;nan
14343;BME280;7255;53.596;9.960;2023-03-15T08:58:31;101009.84;;;2.72;nan
14343;BME280;7255;53.596;9.960;2023-03-15T09:00:58;101006.19;;;2.89;nan
14343;BME280;7255;53.596;9.960;2023-03-15T09:03:26;101016.16;;;2.95;nan
14343;BME280;7255;53.596;9.960;2023-03-15T09:05:55;101014.47;;;3.11;nan
14343;BME280;7255;53.596;9.960;2023-03-15T09:08:21;101032.38;;;3.08;nan
14343;BME280;7255;53.596;9.960;2023-03-15T09:10:52;101041.69;;;2.88;nan
14343;BME280;7255;53.596;9.960;2023-03-15T09:13:19;101041.34;;;2.58;nan
14343;BME280;7255;53.596;9.960;2023-03-15T09:15:45;101039.78;;;2.15;nan
14343;BME280;7255;53.596;9.960;2023-03-15T09:18:14;101037.56;;;1.93;nan
14343;BME280;7255;53.596;9.960;2023-03-15T09:20:41;101028.81;;;1.59;nan
14343;BME280;7255;53.596;9.960;2023-03-15T09:23:08;101010.84;;;1.44;nan
14343;BME280;7255;53.596;9.960;2023-03-15T09:25:34;101013.13;;;1.39;nan
14343;BME280;7255;53.596;9.960;2023-03-15T09:28:01;101011.50;;;1.38;nan
14343;BME280;7255;53.596;9.960;2023-03-15T09:30:28;101074.63;;;1.51;nan
14343;BME280;7255;53.596;9.960;2023-03-15T09:32:54;101026.00;;;1.60;nan
14343;BME280;7255;53.596;9.960;2023-03-15T09:35:21;101017.75;;;1.71;nan
14343;BME280;7255;53.596;9.960;2023-03-15T09:37:49;101024.72;;;1.72;nan
14343;BME280;7255;53.596;9.960;2023-03-15T09:40:19;101034.38;;;1.82;nan
14343;BME280;7255;53.596;9.960;2023-03-15T09:42:54;101037.25;;;1.97;nan
14343;BME280;7255;53.596;9.960;2023-03-15T09:45:26;101041.25;;;2.09;nan
14343;BME280;7255;53.596;9.960;2023-03-15T09:48:03;101044.44;;;2.21;nan
14343;BME280;7255;53.596;9.960;2023-03-15T09:50:36;101046.97;;;2.39;nan
14343;BME280;7255;53.596;9.960;2023-03-15T09:53:10;101040.69;;;2.48;nan
14343;BME280;7255;53.596;9.960;2023-03-15T09:55:38;101059.94;;;2.66;nan
14343;BME280;7255;53.596;9.960;2023-03-15T09:58:09;101067.87;;;2.91;nan
14343;BME280;7255;53.596;9.960;2023-03-15T10:00:40;101083.16;;;3.14;nan
14343;BME280;7255;53.596;9.960;2023-03-15T10:03:13;101097.94;;;3.16;nan
14343;BME280;7255;53.596;9.960;2023-03-15T10:05:42;101063.44;;;2.75;nan
14343;BME280;7255;53.596;9.960;2023-03-15T10:08:12;101019.13;;;2.51;nan
14343;BME280;7255;53.596;9.960;2023-03-15T10:10:45;101067.44;;;2.12;nan
14343;BME280;7255;53.596;9.960;2023-03-15T10:13:24;101069.88;;;1.97;nan
14343;BME280;7255;53.596;9.960;2023-03-15T10:16:01;101049.19;;;2.01;nan
14343;BME280;7255;53.596;9.960;2023-03-15T10:18:42;101059.12;;;2.07;nan
14343;BME280;7255;53.596;9.960;2023-03-15T10:21:12;101054.72;;;2.24;nan
14343;BME280;7255;53.596;9.960;2023-03-15T10:23:46;101067.87;;;2.42;nan
14343;BME280;7255;53.596;9.960;2023-03-15T10:26:18;101075.50;;;2.53;nan
14343;BME280;7255;53.596;9.960;2023-03-15T10:28:46;101067.72;;;2.68;nan
14343;BME280;7255;53.596;9.960;2023-03-15T10:31:15;101071.53;;;2.74;nan
14343;BME280;7255;53.596;9.960;2023-03-15T10:33:45;101076.19;;;2.80;nan
14343;BME280;7255;53.596;9.960;2023-03-15T10:36:16;101076.53;;;2.93;nan
14343;BME280;7255;53.596;9.960;2023-03-15T10:38:44;101074.66;;;3.35;nan
14343;BME280;7255;53.596;9.960;2023-03-15T10:41:14;101096.00;;;3.74;nan
14343;BME280;7255;53.596;9.960;2023-03-15T10:43:56;101075.13;;;3.55;nan
14343;BME280;7255;53.596;9.960;2023-03-15T10:46:23;101082.28;;;3.46;nan
14343;BME280;7255;53.596;9.960;2023-03-15T10:48:56;101080.97;;;3.25;nan
14343;BME280;7255;53.596;9.960;2023-03-15T10:51:24;101076.19;;;2.80;nan
14343;BME280;7255;53.596;9.960;2023-03-15T10:53:54;101083.47;;;2.78;nan
14343;BME280;7255;53.596;9.960;2023-03-15T10:56:23;101079.84;;;2.79;nan
14343;BME280;7255;53.596;9.960;2023-03-15T10:58:51;101091.97;;;2.89;nan
14343;BME280;7255;53.596;9.960;2023-03-15T11:01:24;101082.50;;;3.03;nan
14343;BME280;7255;53.596;9.960;2023-03-15T11:04:05;101090.78;;;3.25;nan
14343;BME280;7255;53.596;9.960;2023-03-15T11:06:40;101112.84;;;3.42;nan
14343;BME280;7255;53.596;9.960;2023-03-15T11:09:10;101104.03;;;3.50;nan
14343;BME280;7255;53.596;9.960;2023-03-15T11:12:03;101115.31;;;3.60;nan
14343;BME280;7255;53.596;9.960;2023-03-15T11:14:33;101116.28;;;3.67;nan
14343;BME280;7255;53.596;9.960;2023-03-15T11:17:00;101120.28;;;3.63;nan
14343;BME280;7255;53.596;9.960;2023-03-15T11:19:30;101131.59;;;3.57;nan
14343;BME280;7255;53.596;9.960;2023-03-15T11:21:58;101106.03;;;3.47;nan
14343;BME280;7255;53.596;9.960;2023-03-15T11:24:29;101121.31;;;3.54;nan
14343;BME280;7255;53.596;9.960;2023-03-15T11:26:58;101165.41;;;3.88;nan
14343;BME280;7255;53.596;9.960;2023-03-15T11:29:27;101157.91;;;3.99;nan
14343;BME280;7255;53.596;9.960;2023-03-15T11:31:57;101158.53;;;4.10;nan
14343;BME280;7255;53.596;9.960;2023-03-15T11:34:30;101154.69;;;4.20;nan
14343;BME280;7255;53.596;9.960;2023-03-15T11:37:05;101155.22;;;4.08;nan
14343;BME280;7255;53.596;9.960;2023-03-15T11:39:40;101158.56;;;4.49;nan
14343;BME280;7255;53.596;9.960;2023-03-15T11:42:13;101154.19;;;4.56;nan
14343;BME280;7255;53.596;9.960;2023-03-15T11:44:44;101190.25;;;4.59;nan
14343;BME280;7255;53.596;9.960;2023-03-15T11:47:15;101222.66;;;4.23;nan
14343;BME280;7255;53.596;9.960;2023-03-15T11:49:48;101203.34;;;3.49;nan
14343;BME280;7255;53.596;9.960;2023-03-15T11:52:16;101163.47;;;3.07;nan
14343;BME280;7255;53.596;9.960;2023-03-15T11:54:45;101153.00;;;2.81;nan
14343;BME280;7255;53.596;9.960;2023-03-15T11:57:34;101167.12;;;2.90;nan
14343;BME280;7255;53.596;9.960;2023-03-15T12:00:16;101164.94;;;2.85;nan
14343;BME280;7255;53.596;9.960;2023-03-15T12:02:48;101150.69;;;2.86;nan
14343;BME280;7255;53.596;9.960;2023-03-15T12:05:39;101169.59;;;2.92;nan
14343;BME280;7255;53.596;9.960;2023-03-15T12:08:21;101088.13;;;2.84;nan
14343;BME280;7255;53.596;9.960;2023-03-15T12:10:50;101148.00;;;2.78;nan
14343;BME280;7255;53.596;9.960;2023-03-15T12:13:21;101159.97;;;2.82;nan
14343;BME280;7255;53.596;9.960;2023-03-15T12:15:49;101097.44;;;2.96;nan
14343;BME280;7255;53.596;9.960;2023-03-15T12:18:18;101161.63;;;3.00;nan
14343;BME280;7255;53.596;9.960;2023-03-15T12:20:56;101168.47;;;3.27;nan
14343;BME280;7255;53.596;9.960;2023-03-15T12:23:36;101172.09;;;3.59;nan
14343;BME280;7255;53.596;9.960;2023-03-15T12:26:22;101170.41;;;3.91;nan
14343;BME280;7255;53.596;9.960;2023-03-15T12:28:51;101185.28;;;4.16;nan
14343;BME280;7255;53.596;9.960;2023-03-15T12:31:18;101190.25;;;4.19;nan
14343;BME280;7255;53.596;9.960;2023-03-15T12:33:47;101179.06;;;4.32;nan
14343;BME280;7255;53.596;9.960;2023-03-15T12:36:18;101189.16;;;4.45;nan
14343;BME280;7255;53.596;9.960;2023-03-15T12:38:57;101196.34;;;4.36;nan
14343;BME280;7255;53.596;9.960;2023-03-15T12:41:37;101193.59;;;4.21;nan
14343;BME280;7255;53.596;9.960;2023-03-15T12:44:35;101192.91;;;4.28;nan
14343;BME280;7255;53.596;9.960;2023-03-15T12:47:03;101198.50;;;4.41;nan
14343;BME280;7255;53.596;9.960;2023-03-15T12:49:33;101188.47;;;4.51;nan
14343;BME280;7255;53.596;9.960;2023-03-15T12:52:02;101202.69;;;4.67;nan
14343;BME280;7255;53.596;9.960;2023-03-15T12:54:33;101215.28;;;4.81;nan
14343;BME280;7255;53.596;9.960;2023-03-15T12:57:04;101223.72;;;5.16;nan
14343;BME280;7255;53.596;9.960;2023-03-15T12:59:35;101216.50;;;5.25;nan
14343;BME280;7255;53.596;9.960;2023-03-15T13:02:25;101237.09;;;5.31;nan
14343;BME280;7255;53.596;9.960;2023-03-15T13:04:59;101222.19;;;5.21;nan
14343;BME280;7255;53.596;9.960;2023-03-15T13:07:35;101211.62;;;5.05;nan
14343;BME280;7255;53.596;9.960;2023-03-15T13:10:29;101228.94;;;5.32;nan
14343;BME280;7255;53.596;9.960;2023-03-15T13:13:02;101236.50;;;5.44;nan
14343;BME280;7255;53.596;9.960;2023-03-15T13:15:36;101243.37;;;5.61;nan
14343;BME280;7255;53.596;9.960;2023-03-15T13:18:11;101238.25;;;5.74;nan
14343;BME280;7255;53.596;9.960;2023-03-15T13:20:47;101217.28;;;5.71;nan
14343;BME280;7255;53.596;9.960;2023-03-15T13:23:19;101243.59;;;5.74;nan
14343;BME280;7255;53.596;9.960;2023-03-15T13:25:51;101247.72;;;6.00;nan
14343;BME280;7255;53.596;9.960;2023-03-15T13:28:22;101243.16;;;6.24;nan
14343;BME280;7255;53.596;9.960;2023-03-15T13:30:50;101238.91;;;6.14;nan
14343;BME280;7255;53.596;9.960;2023-03-15T13:33:20;101229.47;;;5.89;nan
14343;BME280;7255;53.596;9.960;2023-03-15T13:35:53;101247.03;;;5.83;nan
14343;BME280;7255;53.596;9.960;2023-03-15T13:38:23;101238.84;;;5.85;nan
14343;BME280;7255;53.596;9.960;2023-03-15T13:40:51;101246.09;;;5.99;nan